Time;durP1;ratioP1;P1;durP2;ratioP2;P2;SDS_P1;SDS_P2;PMS_P1;PMS_P2;Temp;Humidity;BMP_temperature;BMP_pressure;BME280_temperature;BME280_humidity;BME280_pressure;Samples;Min_cycle;Max_cycle;Signal;HPM_P1;HPM_P2
2021/08/19 00:01:40;;;;;;;3.55;1.55;;;15.40;99.90;;;;;;5008930;28;20073;-65
2021/08/19 00:04:07;;;;;;;9.40;1.90;;;15.40;99.90;;;;;;5010524;28;20096;-67
2021/08/19 00:06:34;;;;;;;3.45;1.65;;;15.40;99.90;;;;;;5011039;28;20046;-66
2021/08/19 00:09:01;;;;;;;5.82;1.80;;;15.40;99.90;;;;;;5010800;28;20459;-65
2021/08/19 00:11:28;;;;;;;4.35;2.17;;;15.40;99.90;;;;;;5009242;28;20097;-67
2021/08/19 00:13:55;;;;;;;14.75;4.30;;;15.40;99.90;;;;;;5010323;28;20053;-66
2021/08/19 00:16:22;;;;;;;4.55;2.20;;;15.40;99.90;;;;;;5009892;28;20595;-67
2021/08/19 00:18:49;;;;;;;4.88;1.70;;;15.40;99.90;;;;;;5010548;28;20041;-65
2021/08/19 00:21:16;;;;;;;5.65;2.20;;;15.40;99.90;;;;;;5010505;28;20050;-66
2021/08/19 00:23:43;;;;;;;6.85;2.42;;;15.40;99.90;;;;;;5009220;28;20111;-68
2021/08/19 00:26:11;;;;;;;3.42;2.13;;;15.40;99.90;;;;;;5010400;28;20073;-68
2021/08/19 00:28:38;;;;;;;3.20;1.60;;;15.40;99.90;;;;;;5010702;28;20046;-66
2021/08/19 00:31:05;;;;;;;6.60;2.28;;;15.30;99.90;;;;;;5010813;28;20099;-65
2021/08/19 00:33:32;;;;;;;6.55;2.53;;;15.40;99.90;;;;;;5008924;28;20100;-70
2021/08/19 00:35:59;;;;;;;8.50;2.28;;;15.40;99.90;;;;;;5009938;28;20057;-67
2021/08/19 00:38:26;;;;;;;5.97;2.55;;;15.30;99.90;;;;;;5010497;28;20072;-69
2021/08/19 00:40:52;;;;;;;5.43;2.33;;;15.30;99.90;;;;;;5010034;28;20042;-65
2021/08/19 00:43:21;;;;;;;3.50;1.58;;;15.30;99.90;;;;;;5009111;28;20050;-68
2021/08/19 00:45:48;;;;;;;4.20;1.48;;;15.30;99.90;;;;;;5009989;28;20167;-65
2021/08/19 00:48:15;;;;;;;8.52;2.20;;;15.30;99.90;;;;;;5010177;28;20494;-65
2021/08/19 00:50:43;;;;;;;6.28;1.75;;;15.30;99.90;;;;;;5009972;28;20042;-66
2021/08/19 00:53:11;;;;;;;3.78;1.73;;;15.30;99.90;;;;;;5010281;28;20046;-65
2021/08/19 00:55:38;;;;;;;3.22;1.63;;;15.30;99.90;;;;;;5008502;28;20432;-65
2021/08/19 00:58:05;;;;;;;5.30;1.90;;;15.30;99.90;;;;;;5009833;28;20439;-65
2021/08/19 01:00:33;;;;;;;5.25;1.85;;;15.20;99.90;;;;;;5009909;28;20132;-66
2021/08/19 01:03:01;;;;;;;5.78;2.97;;;15.30;99.90;;;;;;5010339;28;20150;-66
2021/08/19 01:05:30;;;;;;;4.07;2.08;;;15.30;99.90;;;;;;5011250;28;20129;-66
2021/08/19 01:08:01;;;;;;;6.15;2.22;;;15.20;99.90;;;;;;5013364;28;20077;-66
2021/08/19 01:10:29;;;;;;;6.85;2.40;;;15.20;99.90;;;;;;5013376;28;20057;-65
2021/08/19 01:12:56;;;;;;;6.28;2.40;;;15.20;99.90;;;;;;5013775;28;20069;-66
2021/08/19 01:15:24;;;;;;;10.82;2.88;;;15.20;99.90;;;;;;5011476;28;20085;-67
2021/08/19 01:17:59;;;;;;;4.57;2.08;;;15.10;99.90;;;;;;5013228;28;20050;-65
2021/08/19 01:20:33;;;;;;;3.70;1.83;;;15.20;99.90;;;;;;5013158;28;20073;-67
2021/08/19 01:23:01;;;;;;;5.70;2.47;;;15.10;99.90;;;;;;5013196;28;20050;-65
2021/08/19 01:25:28;;;;;;;7.93;3.10;;;15.10;99.90;;;;;;5011376;28;20074;-65
2021/08/19 01:27:56;;;;;;;6.70;2.35;;;15.10;99.90;;;;;;5012798;28;20354;-65
2021/08/19 01:30:25;;;;;;;6.10;3.20;;;15.10;99.90;;;;;;5012688;28;20484;-66
2021/08/19 01:32:52;;;;;;;7.55;2.85;;;15.10;99.90;;;;;;5013090;28;20084;-65
2021/08/19 01:35:22;;;;;;;4.22;2.58;;;15.10;99.90;;;;;;5011046;28;20058;-69
2021/08/19 01:37:49;;;;;;;6.95;2.95;;;15.10;99.90;;;;;;5013104;28;20133;-66
2021/08/19 01:40:16;;;;;;;5.05;3.38;;;15.10;99.90;;;;;;5011612;28;20121;-65
2021/08/19 01:42:44;;;;;;;6.07;2.08;;;15.10;99.90;;;;;;5012562;28;20133;-67
2021/08/19 01:45:15;;;;;;;6.65;3.35;;;15.10;99.90;;;;;;5012895;28;20053;-66
2021/08/19 01:47:43;;;;;;;2.70;1.75;;;15.10;99.90;;;;;;5010551;28;20046;-65
2021/08/19 01:50:10;;;;;;;11.20;4.32;;;15.10;99.90;;;;;;5012312;28;20050;-70
2021/08/19 01:52:37;;;;;;;4.53;2.78;;;15.10;99.90;;;;;;5012616;28;20093;-65
2021/08/19 01:55:04;;;;;;;6.10;1.80;;;15.00;99.90;;;;;;5011844;28;20175;-66
2021/08/19 01:57:31;;;;;;;10.13;3.72;;;15.00;99.90;;;;;;5010932;28;20076;-65
2021/08/19 01:59:58;;;;;;;8.48;3.55;;;15.00;99.90;;;;;;5012329;28;20136;-65
2021/08/19 02:02:25;;;;;;;2.88;2.35;;;15.10;99.90;;;;;;5012370;28;20052;-68
2021/08/19 02:04:52;;;;;;;5.97;2.58;;;15.10;99.90;;;;;;5012480;28;20112;-66
2021/08/19 02:07:19;;;;;;;3.95;2.47;;;15.00;99.90;;;;;;5010715;28;20084;-67
2021/08/19 02:09:46;;;;;;;12.77;3.67;;;15.00;99.90;;;;;;5012081;28;20508;-65
2021/08/19 02:12:13;;;;;;;8.88;3.70;;;15.00;99.90;;;;;;5011085;28;20050;-66
2021/08/19 02:14:40;;;;;;;5.35;2.83;;;15.10;99.90;;;;;;5012186;28;20056;-65
2021/08/19 02:17:07;;;;;;;3.88;2.20;;;15.10;99.90;;;;;;5011652;28;20136;-65
2021/08/19 02:19:34;;;;;;;3.88;2.60;;;15.10;99.90;;;;;;5011082;28;20058;-69
2021/08/19 02:22:01;;;;;;;10.65;2.45;;;15.10;99.90;;;;;;5012267;28;20440;-65
2021/08/19 02:24:28;;;;;;;5.40;1.58;;;15.10;99.90;;;;;;5012193;28;20063;-66
2021/08/19 02:26:55;;;;;;;6.47;3.17;;;15.10;99.90;;;;;;5010807;28;20086;-67
2021/08/19 02:29:21;;;;;;;5.53;2.63;;;15.10;99.90;;;;;;5010340;28;20100;-66
2021/08/19 02:31:49;;;;;;;4.85;2.28;;;15.10;99.90;;;;;;5011679;28;20081;-65
2021/08/19 02:34:16;;;;;;;3.80;2.00;;;15.10;99.90;;;;;;5011547;28;20479;-67
2021/08/19 02:36:43;;;;;;;7.65;2.45;;;15.10;99.90;;;;;;5012177;28;20053;-65
2021/08/19 02:39:10;;;;;;;7.50;3.13;;;15.20;99.90;;;;;;5011694;28;20053;-66
2021/08/19 02:41:37;;;;;;;5.13;2.22;;;15.20;99.90;;;;;;5009977;28;20137;-68
2021/08/19 02:44:04;;;;;;;8.05;2.55;;;15.20;99.90;;;;;;5011343;28;20054;-66
2021/08/19 02:46:31;;;;;;;3.47;2.45;;;15.10;99.90;;;;;;5011710;28;20061;-68
2021/08/19 02:48:58;;;;;;;8.32;2.70;;;15.10;99.90;;;;;;5011253;28;20069;-69
2021/08/19 02:51:25;;;;;;;8.52;2.30;;;15.10;99.90;;;;;;5009814;28;20484;-68
2021/08/19 02:53:52;;;;;;;3.78;2.58;;;15.10;99.90;;;;;;5011748;28;20448;-68
2021/08/19 02:56:19;;;;;;;7.50;3.15;;;15.10;99.90;;;;;;5011392;28;20537;-66
2021/08/19 02:58:45;;;;;;;5.60;2.15;;;15.10;99.90;;;;;;5011228;28;20468;-67
2021/08/19 03:01:12;;;;;;;5.47;1.90;;;15.10;99.90;;;;;;5011634;28;20200;-66
2021/08/19 03:03:39;;;;;;;4.18;2.15;;;15.10;99.90;;;;;;5009744;28;20095;-66
2021/08/19 03:06:06;;;;;;;5.88;2.50;;;15.10;99.90;;;;;;5010789;28;20145;-66
2021/08/19 03:08:33;;;;;;;3.97;2.58;;;15.10;99.90;;;;;;5011073;28;20494;-67
2021/08/19 03:11:00;;;;;;;9.80;2.65;;;15.10;99.90;;;;;;5011497;28;20076;-69
2021/08/19 03:13:27;;;;;;;2.80;2.10;;;15.10;99.90;;;;;;5009549;28;20072;-67
2021/08/19 03:15:54;;;;;;;3.67;2.42;;;15.10;99.90;;;;;;5011098;28;20110;-67
2021/08/19 03:18:21;;;;;;;6.75;2.35;;;15.10;99.90;;;;;;5011261;28;20143;-70
2021/08/19 03:20:48;;;;;;;4.75;2.20;;;15.10;99.90;;;;;;5010533;28;20071;-67
2021/08/19 03:23:15;;;;;;;5.93;1.77;;;15.10;99.90;;;;;;5011064;28;20053;-67
2021/08/19 03:25:42;;;;;;;4.85;3.22;;;15.10;99.90;;;;;;5009286;28;20367;-65
2021/08/19 03:28:11;;;;;;;7.47;1.60;;;15.20;99.90;;;;;;5010003;28;20129;-69
2021/08/19 03:30:38;;;;;;;5.03;3.15;;;15.20;99.90;;;;;;5010724;28;20084;-66
2021/08/19 03:33:06;;;;;;;5.13;2.13;;;15.10;99.90;;;;;;5010459;28;20084;-65
2021/08/19 03:35:34;;;;;;;4.40;2.17;;;15.20;99.90;;;;;;5009233;28;20532;-66
2021/08/19 03:38:00;;;;;;;4.85;1.95;;;15.20;99.90;;;;;;5010537;28;20431;-65
2021/08/19 03:40:27;;;;;;;2.53;1.80;;;15.20;99.90;;;;;;5010424;28;20124;-66
2021/08/19 03:42:54;;;;;;;2.65;1.40;;;15.20;99.90;;;;;;5010404;28;20050;-66
2021/08/19 03:45:21;;;;;;;5.43;2.28;;;15.10;99.90;;;;;;5009073;28;20066;-69
2021/08/19 03:47:48;;;;;;;4.70;2.08;;;15.10;99.90;;;;;;5010851;28;20045;-68
2021/08/19 03:50:15;;;;;;;2.45;1.90;;;15.00;99.90;;;;;;5010280;28;20104;-65
2021/08/19 03:52:42;;;;;;;4.35;2.25;;;15.00;99.90;;;;;;5010509;28;20101;-66
2021/08/19 03:55:10;;;;;;;9.10;3.08;;;15.00;99.90;;;;;;5010538;28;20539;-66
2021/08/19 03:57:36;;;;;;;4.88;2.00;;;15.00;99.90;;;;;;5009343;28;20069;-65
2021/08/19 04:00:05;;;;;;;5.13;2.10;;;15.00;99.90;;;;;;5010464;28;20054;-67
2021/08/19 04:02:37;;;;;;;5.35;2.28;;;15.00;99.90;;;;;;5010551;28;20070;-69
2021/08/19 04:05:05;;;;;;;3.47;2.15;;;15.10;99.90;;;;;;5010379;28;20056;-67
2021/08/19 04:07:37;;;;;;;7.53;2.65;;;15.10;99.90;;;;;;5008488;28;20053;-66
2021/08/19 04:10:05;;;;;;;3.97;2.40;;;15.10;99.90;;;;;;5010119;28;20446;-69
2021/08/19 04:12:34;;;;;;;4.07;2.08;;;15.10;99.90;;;;;;5010515;28;20042;-64
2021/08/19 04:15:04;;;;;;;3.70;2.10;;;15.10;99.90;;;;;;5010480;28;20440;-65
2021/08/19 04:17:30;;;;;;;4.88;2.25;;;15.10;99.90;;;;;;5009052;28;20100;-67
2021/08/19 04:19:57;;;;;;;3.67;1.75;;;15.10;99.90;;;;;;5010559;28;20050;-67
2021/08/19 04:22:24;;;;;;;3.40;2.10;;;15.10;99.90;;;;;;5010077;28;20068;-65
2021/08/19 04:24:51;;;;;;;15.68;1.75;;;15.10;99.90;;;;;;5010575;28;20476;-65
2021/08/19 04:27:19;;;;;;;2.33;1.67;;;15.10;99.90;;;;;;5008974;28;20041;-65
2021/08/19 04:29:46;;;;;;;3.20;1.65;;;15.10;99.90;;;;;;5010203;28;20082;-65
2021/08/19 04:32:13;;;;;;;3.05;1.65;;;15.10;99.90;;;;;;5010386;28;20054;-65
2021/08/19 04:34:40;;;;;;;4.40;1.77;;;15.10;99.90;;;;;;5010484;28;20476;-66
2021/08/19 04:37:07;;;;;;;5.93;1.73;;;15.10;99.90;;;;;;5010266;28;20053;-65
2021/08/19 04:39:34;;;;;;;4.20;1.92;;;15.10;99.90;;;;;;5010655;28;20455;-65
2021/08/19 04:42:01;;;;;;;4.10;1.70;;;15.10;99.90;;;;;;5014073;28;20053;-66
2021/08/19 04:44:28;;;;;;;1.52;1.30;;;15.20;99.90;;;;;;5013994;28;20133;-67
2021/08/19 04:46:55;;;;;;;3.15;1.90;;;15.20;99.90;;;;;;5013867;28;20123;-67
2021/08/19 04:49:22;;;;;;;2.08;1.33;;;15.20;99.90;;;;;;5012114;28;20052;-67
2021/08/19 04:51:49;;;;;;;5.38;1.95;;;15.20;99.90;;;;;;5013538;28;20133;-65
2021/08/19 04:54:16;;;;;;;4.03;1.30;;;15.20;99.90;;;;;;5013482;28;20496;-66
2021/08/19 04:56:43;;;;;;;2.10;1.90;;;15.30;99.90;;;;;;5013536;28;20046;-71
2021/08/19 04:59:10;;;;;;;2.63;1.65;;;15.20;99.90;;;;;;5013712;28;20057;-65
2021/08/19 05:01:40;;;;;;;3.20;1.77;;;15.20;99.90;;;;;;5012457;28;20057;-66
2021/08/19 05:04:08;;;;;;;;;;;15.20;99.90;;;;;;5014299;28;20396;-65
2021/08/19 05:06:35;;;;;;;2.83;1.45;;;15.20;99.90;;;;;;5013533;28;19960;-66
2021/08/19 05:09:04;;;;;;;3.20;2.47;;;15.20;99.90;;;;;;5013464;28;20096;-68
2021/08/19 05:11:32;;;;;;;4.45;2.28;;;15.10;99.90;;;;;;5011757;28;20078;-66
2021/08/19 05:13:59;;;;;;;3.95;2.65;;;15.10;99.90;;;;;;5013298;28;20112;-66
2021/08/19 05:16:27;;;;;;;1.73;1.25;;;15.10;99.90;;;;;;5013553;28;20058;-67
2021/08/19 05:18:54;;;;;;;2.30;2.10;;;15.10;99.90;;;;;;5013486;28;20490;-66
2021/08/19 05:21:22;;;;;;;6.18;3.95;;;15.10;99.90;;;;;;5012015;28;20132;-66
2021/08/19 05:23:50;;;;;;;5.75;3.28;;;15.20;99.90;;;;;;5012802;28;20078;-69
2021/08/19 05:26:18;;;;;;;4.80;2.65;;;15.20;99.90;;;;;;5013041;28;20500;-65
2021/08/19 05:28:48;;;;;;;7.05;3.95;;;15.20;99.90;;;;;;5013109;28;20506;-70
2021/08/19 05:31:16;;;;;;;3.15;2.80;;;15.20;99.90;;;;;;5013180;28;20053;-67
2021/08/19 05:33:43;;;;;;;2.05;1.48;;;15.30;99.90;;;;;;5011324;28;20310;-68
2021/08/19 05:36:12;;;;;;;2.22;1.30;;;15.40;99.90;;;;;;5012426;28;20049;-67
2021/08/19 05:38:43;;;;;;;3.90;1.48;;;15.40;99.90;;;;;;5012426;28;20396;-68
2021/08/19 05:41:10;;;;;;;1.92;1.73;;;15.60;99.90;;;;;;5012704;28;20388;-65
2021/08/19 05:43:37;;;;;;;1.92;1.00;;;15.60;99.90;;;;;;5010880;28;20124;-66
2021/08/19 05:46:07;;;;;;;2.25;1.65;;;15.60;99.90;;;;;;5012726;28;20109;-65
2021/08/19 05:48:34;;;;;;;4.43;1.55;;;15.50;99.90;;;;;;5012488;28;20053;-67
2021/08/19 05:51:01;;;;;;;2.15;1.45;;;15.50;99.90;;;;;;5012172;28;20097;-65
2021/08/19 05:53:28;;;;;;;2.85;1.38;;;15.50;99.90;;;;;;5011098;28;20050;-66
2021/08/19 05:55:54;;;;;;;3.40;1.10;;;15.50;99.90;;;;;;5011867;28;20083;-68
2021/08/19 05:58:21;;;;;;;8.07;1.48;;;15.50;99.90;;;;;;5012494;28;20049;-68
2021/08/19 06:00:49;;;;;;;2.25;0.85;;;15.50;99.90;;;;;;5012726;28;20125;-66
2021/08/19 06:03:17;;;;;;;2.33;1.48;;;15.60;99.90;;;;;;5012683;28;20108;-66
2021/08/19 06:05:44;;;;;;;2.58;1.40;;;15.60;99.90;;;;;;5010835;28;20042;-66
2021/08/19 06:08:11;;;;;;;4.75;1.52;;;15.60;99.90;;;;;;5012303;28;20076;-65
2021/08/19 06:10:38;;;;;;;2.13;1.10;;;15.60;99.90;;;;;;5012198;28;20108;-66
2021/08/19 06:13:05;;;;;;;1.02;0.93;;;15.70;99.90;;;;;;5012386;28;20080;-69
2021/08/19 06:15:32;;;;;;;3.35;1.27;;;15.70;99.90;;;;;;5009311;28;20049;-65
2021/08/19 06:17:59;;;;;;;2.05;1.13;;;15.70;99.90;;;;;;5012187;28;20132;-67
2021/08/19 06:20:27;;;;;;;3.20;1.70;;;15.80;99.90;;;;;;5011935;28;20382;-67
2021/08/19 06:22:55;;;;;;;1.70;0.95;;;15.80;99.90;;;;;;5011743;28;20050;-65
2021/08/19 06:25:22;;;;;;;2.95;1.10;;;15.70;99.90;;;;;;5010520;28;20386;-66
2021/08/19 06:27:51;;;;;;;1.65;0.82;;;15.70;99.90;;;;;;5011514;28;20491;-66
2021/08/19 06:30:17;;;;;;;3.00;0.95;;;15.70;99.90;;;;;;5012095;28;20134;-66
2021/08/19 06:32:44;;;;;;;3.00;1.00;;;15.70;99.90;;;;;;5011954;28;20317;-67
2021/08/19 06:35:11;;;;;;;2.28;1.13;;;15.80;99.90;;;;;;5011902;28;20046;-65
2021/08/19 06:37:39;;;;;;;4.80;1.23;;;15.80;99.90;;;;;;5010452;28;20467;-65
2021/08/19 06:40:07;;;;;;;3.30;0.85;;;15.80;99.90;;;;;;5011428;28;20104;-65
2021/08/19 06:42:34;;;;;;;2.80;0.90;;;15.90;99.90;;;;;;5011803;28;20137;-65
2021/08/19 06:45:01;;;;;;;2.20;1.08;;;15.90;99.90;;;;;;5011848;28;20049;-65
2021/08/19 06:47:28;;;;;;;2.13;1.02;;;15.90;99.90;;;;;;5009896;28;20050;-66
2021/08/19 06:49:54;;;;;;;2.58;1.25;;;15.80;99.90;;;;;;5011619;28;20168;-65
2021/08/19 06:52:21;;;;;;;1.88;1.00;;;15.80;99.90;;;;;;5011802;28;20046;-67
2021/08/19 06:54:48;;;;;;;1.42;0.90;;;15.90;99.90;;;;;;5011620;28;20081;-66
2021/08/19 06:57:15;;;;;;;1.90;1.23;;;15.80;99.90;;;;;;5011150;28;20041;-65
2021/08/19 06:59:42;;;;;;;2.03;1.30;;;15.80;99.90;;;;;;5009643;28;20260;-66
2021/08/19 07:02:09;;;;;;;3.08;1.40;;;15.70;99.90;;;;;;5010224;28;20046;-66
2021/08/19 07:04:37;;;;;;;1.80;1.45;;;15.70;99.90;;;;;;5011008;28;20100;-66
2021/08/19 07:07:03;;;;;;;1.42;1.10;;;15.70;99.90;;;;;;5011161;28;20053;-67
2021/08/19 07:09:30;;;;;;;2.25;1.40;;;15.70;99.90;;;;;;5009308;28;20492;-65
2021/08/19 07:11:58;;;;;;;2.53;1.30;;;15.70;99.90;;;;;;5011036;28;20103;-65
2021/08/19 07:14:25;;;;;;;2.80;1.60;;;15.60;99.90;;;;;;5011180;28;20054;-68
2021/08/19 07:16:52;;;;;;;1.50;1.05;;;15.70;99.90;;;;;;5011198;28;20053;-66
2021/08/19 07:19:19;;;;;;;5.30;1.75;;;15.70;99.90;;;;;;5009733;28;20054;-65
2021/08/19 07:21:45;;;;;;;4.03;1.60;;;15.70;99.90;;;;;;5010801;28;20045;-66
2021/08/19 07:24:13;;;;;;;12.55;1.45;;;15.60;99.90;;;;;;5011287;28;20061;-66
2021/08/19 07:26:40;;;;;;;2.83;1.20;;;15.60;99.90;;;;;;5010985;28;20054;-66
2021/08/19 07:29:07;;;;;;;2.80;1.55;;;15.60;99.90;;;;;;5010921;28;20078;-65
2021/08/19 07:31:35;;;;;;;3.35;1.77;;;15.70;99.90;;;;;;5009144;28;20500;-66
2021/08/19 07:34:02;;;;;;;3.45;1.48;;;15.80;99.90;;;;;;5010678;28;20116;-66
2021/08/19 07:36:29;;;;;;;6.55;2.70;;;15.90;99.90;;;;;;5010930;28;20096;-68
2021/08/19 07:39:02;;;;;;;3.30;1.88;;;16.00;99.90;;;;;;5010648;28;20058;-65
2021/08/19 07:41:33;;;;;;;2.08;1.23;;;16.10;99.90;;;;;;5009278;28;20069;-69
2021/08/19 07:44:00;;;;;;;3.45;1.63;;;16.10;99.90;;;;;;5010689;28;20092;-65
2021/08/19 07:46:28;;;;;;;4.45;1.92;;;16.20;99.90;;;;;;5010422;28;20049;-68
2021/08/19 07:48:56;;;;;;;2.50;2.20;;;16.10;99.90;;;;;;5010878;28;20042;-66
2021/08/19 07:51:24;;;;;;;4.57;2.42;;;16.20;99.90;;;;;;5009188;28;20046;-65
2021/08/19 07:53:51;;;;;;;2.88;1.88;;;16.20;99.90;;;;;;5010570;28;20165;-66
2021/08/19 07:56:17;;;;;;;1.92;1.63;;;16.20;99.90;;;;;;5010510;28;20073;-66
2021/08/19 07:58:44;;;;;;;2.28;1.83;;;16.20;99.90;;;;;;5010759;28;20076;-68
2021/08/19 08:01:11;;;;;;;3.10;1.50;;;16.30;99.90;;;;;;5010489;28;20053;-69
2021/08/19 08:03:39;;;;;;;1.63;1.27;;;16.40;99.90;;;;;;5009224;28;20456;-66
2021/08/19 08:06:06;;;;;;;4.18;1.42;;;16.50;99.90;;;;;;5010246;28;20069;-65
2021/08/19 08:08:33;;;;;;;2.58;2.22;;;16.50;99.90;;;;;;5010784;28;20481;-67
2021/08/19 08:11:00;;;;;;;5.28;1.67;;;16.50;99.90;;;;;;5010898;28;20061;-65
2021/08/19 08:13:27;;;;;;;7.20;1.52;;;16.50;99.90;;;;;;5009285;28;20077;-66
2021/08/19 08:15:54;;;;;;;2.72;1.20;;;16.60;99.90;;;;;;5014421;28;20052;-66
2021/08/19 08:18:21;;;;;;;4.25;1.40;;;16.50;99.90;;;;;;5029496;28;20050;-65
2021/08/19 08:20:48;;;;;;;5.22;1.42;;;16.50;99.90;;;;;;5014588;28;20103;-65
2021/08/19 08:23:19;;;;;;;3.78;2.38;;;16.60;99.90;;;;;;5014480;28;20129;-70
2021/08/19 08:25:47;;;;;;;4.72;1.83;;;16.70;99.90;;;;;;5013259;28;20058;-65
2021/08/19 08:28:19;;;;;;;4.47;1.77;;;16.70;99.90;;;;;;5014504;28;20119;-66
2021/08/19 08:30:51;;;;;;;6.90;1.80;;;16.70;99.90;;;;;;5014064;28;20096;-66
2021/08/19 08:33:18;;;;;;;5.35;1.77;;;16.80;99.90;;;;;;5012267;28;20049;-66
2021/08/19 08:35:45;;;;;;;3.47;1.50;;;16.90;99.90;;;;;;5013811;28;20136;-70
2021/08/19 08:38:16;;;;;;;4.50;1.67;;;16.90;99.90;;;;;;5014015;28;20104;-65
2021/08/19 08:40:46;;;;;;;8.30;2.13;;;16.90;99.90;;;;;;5014121;28;20445;-66
2021/08/19 08:43:14;;;;;;;4.80;3.90;;;17.00;99.90;;;;;;5013911;28;20092;-65
2021/08/19 08:45:43;;;;;;;3.17;1.80;;;17.00;99.90;;;;;;5012386;28;20060;-66
2021/08/19 08:48:12;;;;;;;2.88;1.60;;;17.10;99.90;;;;;;5013982;28;20510;-67
2021/08/19 08:50:41;;;;;;;5.38;1.70;;;17.10;99.90;;;;;;5013876;28;20045;-70
2021/08/19 08:53:09;;;;;;;3.40;1.70;;;17.20;99.90;;;;;;5014039;28;20460;-65
2021/08/19 08:55:37;;;;;;;5.15;1.75;;;17.20;99.90;;;;;;5012328;28;20142;-69
2021/08/19 08:58:06;;;;;;;1.63;1.30;;;17.30;99.90;;;;;;5013607;28;20049;-66
2021/08/19 09:00:33;;;;;;;8.23;2.70;;;17.40;99.90;;;;;;5013831;28;20123;-68
2021/08/19 09:03:11;;;;;;;5.85;2.25;;;17.40;99.90;;;;;;5013781;28;20128;-66
2021/08/19 09:05:41;;;;;;;5.53;2.30;;;17.40;99.90;;;;;;5012294;28;20121;-67
2021/08/19 09:08:18;;;;;;;3.60;1.80;;;17.40;99.90;;;;;;5013587;28;20124;-66
2021/08/19 09:10:47;;;;;;;4.70;2.58;;;17.50;99.90;;;;;;5013331;28;20050;-66
2021/08/19 09:13:20;;;;;;;7.63;2.08;;;17.50;99.90;;;;;;5013014;28;20507;-66
2021/08/19 09:15:48;;;;;;;3.47;2.83;;;17.50;99.90;;;;;;5011942;28;20049;-65
2021/08/19 09:18:42;;;;;;;4.03;1.60;;;17.40;99.90;;;;;;5013336;28;20058;-66
2021/08/19 09:21:21;;;;;;;4.40;1.55;;;17.30;99.90;;;;;;5010734;28;20071;-66
2021/08/19 09:24:26;;;;;;;5.15;2.17;;;17.30;99.90;;;;;;5011575;28;20058;-66
2021/08/19 09:26:55;;;;;;;7.53;2.60;;;17.40;99.90;;;;;;5013243;28;20050;-66
2021/08/19 09:29:27;;;;;;;5.27;2.47;;;17.50;99.90;;;;;;5011288;28;20065;-65
2021/08/19 09:32:17;;;;;;;3.83;1.65;;;17.60;99.90;;;;;;5013003;28;20041;-65
2021/08/19 09:34:47;;;;;;;3.33;2.03;;;17.70;99.90;;;;;;5012659;28;20049;-67
2021/08/19 09:37:18;;;;;;;2.85;2.20;;;17.80;99.90;;;;;;5013011;28;20611;-67
2021/08/19 09:39:57;;;;;;;7.65;1.77;;;17.80;99.90;;;;;;5011772;28;20076;-69
2021/08/19 09:42:39;;;;;;;2.00;1.52;;;17.80;99.90;;;;;;5013112;28;20069;-65
2021/08/19 09:45:22;;;;;;;2.38;1.50;;;17.90;99.90;;;;;;5012774;28;20050;-67
2021/08/19 09:47:50;;;;;;;4.93;2.00;;;17.90;99.90;;;;;;5011645;28;20502;-66
2021/08/19 09:50:22;;;;;;;7.45;1.80;;;17.90;99.90;;;;;;5012306;28;20092;-65
2021/08/19 09:52:52;;;;;;;5.90;1.90;;;17.90;99.90;;;;;;5012929;28;20046;-68
2021/08/19 09:55:32;;;;;;;3.63;2.25;;;18.10;99.90;;;;;;5011561;28;20053;-64
2021/08/19 09:58:00;;;;;;;3.88;1.85;;;18.30;99.90;;;;;;5012808;28;20062;-65
2021/08/19 10:00:36;;;;;;;3.38;1.60;;;18.30;99.90;;;;;;5012983;28;20069;-67
2021/08/19 10:03:04;;;;;;;5.65;2.95;;;18.30;99.90;;;;;;5012965;28;20167;-69
2021/08/19 10:05:31;;;;;;;2.95;2.00;;;18.50;99.90;;;;;;5010312;28;20069;-65
2021/08/19 10:07:59;;;;;;;3.20;2.20;;;18.50;99.90;;;;;;5012414;28;20061;-66
2021/08/19 10:10:27;;;;;;;3.05;1.50;;;18.50;99.90;;;;;;5012588;28;20073;-68
2021/08/19 10:13:02;;;;;;;4.05;1.88;;;18.50;99.90;;;;;;5012720;28;20046;-64
2021/08/19 10:15:35;;;;;;;3.60;1.67;;;18.60;99.90;;;;;;5011130;28;20058;-66
2021/08/19 10:18:05;;;;;;;2.67;1.70;;;18.70;99.90;;;;;;5012633;28;20403;-64
2021/08/19 10:20:37;;;;;;;1.98;1.42;;;18.80;99.90;;;;;;5012414;28;20096;-65
2021/08/19 10:23:05;;;;;;;3.88;1.95;;;18.80;99.90;;;;;;5012879;28;20061;-66
2021/08/19 10:25:32;;;;;;;2.55;1.88;;;18.70;99.90;;;;;;5010809;28;20080;-65
2021/08/19 10:28:20;;;;;;;4.97;2.45;;;18.60;99.90;;;;;;5012040;28;20547;-65
2021/08/19 10:30:55;;;;;;;3.05;1.35;;;18.70;99.90;;;;;;5012356;28;20046;-66
2021/08/19 10:33:38;;;;;;;5.35;1.60;;;18.80;99.90;;;;;;5010913;28;20053;-67
2021/08/19 10:36:11;;;;;;;6.03;2.08;;;18.90;99.90;;;;;;5011802;28;20073;-65
2021/08/19 10:38:39;;;;;;;2.47;1.70;;;19.00;99.90;;;;;;5012072;28;20336;-65
2021/08/19 10:41:31;;;;;;;8.88;2.83;;;19.00;99.90;;;;;;5012433;28;20046;-65
2021/08/19 10:44:07;;;;;;;3.50;2.10;;;19.00;99.90;;;;;;5011022;28;20071;-67
2021/08/19 10:46:39;;;;;;;5.18;1.70;;;19.10;99.90;;;;;;5012252;28;20050;-67
2021/08/19 10:49:06;;;;;;;7.85;2.35;;;19.20;99.90;;;;;;5012123;28;20104;-66
2021/08/19 10:51:33;;;;;;;3.08;1.27;;;19.30;99.90;;;;;;5010351;28;20070;-74
2021/08/19 10:54:20;;;;;;;2.38;1.67;;;19.50;99.90;;;;;;5011845;28;20065;-66
2021/08/19 10:56:47;;;;;;;2.00;1.52;;;19.60;99.90;;;;;;5011658;28;20100;-71
2021/08/19 10:59:31;;;;;;;5.72;1.45;;;19.70;99.90;;;;;;5011332;28;20433;-67
2021/08/19 11:02:00;;;;;;;8.52;2.70;;;19.60;99.90;;;;;;5009965;28;20050;-66
2021/08/19 11:04:46;;;;;;;2.67;1.45;;;19.80;99.90;;;;;;5011606;28;20054;-66
2021/08/19 11:07:52;;;;;;;3.40;2.30;;;19.80;99.90;;;;;;5010849;28;20046;-69
2021/08/19 11:10:39;;;;;;;1.92;1.10;;;19.70;99.90;;;;;;5010515;28;20053;-65
2021/08/19 11:13:10;;;;;;;3.47;1.33;;;19.50;99.90;;;;;;5011391;28;20053;-64
2021/08/19 11:15:49;;;;;;;5.88;1.85;;;19.60;99.90;;;;;;5009960;28;20061;-65
2021/08/19 11:18:27;;;;;;;3.33;1.48;;;19.60;99.90;;;;;;5011366;28;20437;-64
2021/08/19 11:20:55;;;;;;;3.95;1.90;;;19.60;99.90;;;;;;5011172;28;20449;-74
2021/08/19 11:23:39;;;;;;;5.95;1.45;;;19.50;99.90;;;;;;5009233;28;20073;-65
2021/08/19 11:26:18;;;;;;;4.15;2.03;;;19.70;99.90;;;;;;5011059;28;20053;-68
2021/08/19 11:28:47;;;;;;;4.50;1.95;;;19.70;99.90;;;;;;5011509;28;20470;-65
2021/08/19 11:31:17;;;;;;;3.60;1.42;;;19.60;99.90;;;;;;5010848;28;20073;-68
2021/08/19 11:33:44;;;;;;;3.22;1.90;;;19.50;99.90;;;;;;5009773;28;20079;-65
2021/08/19 11:36:14;;;;;;;3.95;1.27;;;19.50;99.90;;;;;;5010766;28;20141;-67
2021/08/19 11:38:42;;;;;;;3.38;1.58;;;19.70;99.90;;;;;;5010303;28;20056;-68
2021/08/19 11:41:21;;;;;;;3.85;1.73;;;19.70;99.90;;;;;;5010823;28;20049;-64
2021/08/19 11:43:48;;;;;;;1.83;1.33;;;19.90;99.90;;;;;;5009726;28;20062;-65
2021/08/19 11:46:24;;;;;;;1.85;1.08;;;20.10;99.90;;;;;;5010824;28;20050;-69
2021/08/19 11:48:56;;;;;;;1.42;1.33;;;20.30;99.90;;;;;;5010343;28;20050;-68
2021/08/19 11:51:23;;;;;;;5.00;1.83;;;20.30;99.90;;;;;;5009509;28;20096;-72
2021/08/19 11:53:56;;;;;;;6.70;1.50;;;20.40;99.90;;;;;;5010378;28;20602;-68
2021/08/19 11:56:31;;;;;;;2.70;1.33;;;20.40;99.90;;;;;;5010946;28;20049;-65
2021/08/19 11:59:16;;;;;;;2.60;1.58;;;20.30;99.90;;;;;;5010804;28;20136;-69
2021/08/19 12:01:53;;;;;;;4.72;1.88;;;20.20;99.90;;;;;;5009513;28;20100;-65
2021/08/19 12:04:29;;;;;;;3.05;1.27;;;20.30;99.90;;;;;;5010815;28;20460;-66
2021/08/19 12:07:01;;;;;;;3.17;1.15;;;20.40;99.90;;;;;;5010751;28;20054;-67
2021/08/19 12:09:29;;;;;;;2.90;1.10;;;20.50;99.90;;;;;;5009047;28;20099;-75
2021/08/19 12:11:56;;;;;;;2.88;2.22;;;20.40;99.90;;;;;;5010452;28;20081;-65
2021/08/19 12:14:25;;;;;;;3.03;1.60;;;20.50;99.90;;;;;;5010759;28;20100;-67
2021/08/19 12:16:55;;;;;;;4.10;1.10;;;20.50;99.90;;;;;;5010979;28;20395;-68
2021/08/19 12:19:26;;;;;;;2.35;1.55;;;20.50;99.90;;;;;;5008798;28;20334;-76
2021/08/19 12:21:53;;;;;;;1.85;1.52;;;20.50;99.90;;;;;;5010376;28;20455;-71
2021/08/19 12:24:54;;;;;;;2.42;1.80;;;20.60;99.90;;;;;;5010473;28;20054;-68
2021/08/19 12:27:22;;;;;;;4.47;1.70;;;20.70;99.90;;;;;;4996400;28;20046;-66
2021/08/19 12:29:52;;;;;;;1.88;1.38;;;20.60;99.90;;;;;;5010267;28;20384;-66
2021/08/19 12:32:25;;;;;;;1.90;1.20;;;20.50;99.90;;;;;;5010565;28;20092;-70
2021/08/19 12:35:10;;;;;;;1.90;1.23;;;20.60;99.90;;;;;;5010699;28;20112;-69
2021/08/19 12:37:55;;;;;;;4.45;1.60;;;20.70;99.90;;;;;;5008621;28;20050;-70
2021/08/19 12:40:31;;;;;;;3.78;1.63;;;20.70;99.90;;;;;;5009869;28;20440;-69
2021/08/19 12:43:10;;;;;;;3.92;1.55;;;20.80;99.90;;;;;;5010502;28;20097;-72
2021/08/19 12:45:38;;;;;;;4.25;1.20;;;20.80;99.90;;;;;;5008849;28;22159;-74
2021/08/19 12:48:10;;;;;;;3.13;1.92;;;20.90;99.90;;;;;;5010006;28;20148;-65
2021/08/19 12:50:38;;;;;;;2.50;1.40;;;20.90;99.90;;;;;;5010119;28;20065;-72
2021/08/19 12:53:06;;;;;;;4.55;1.98;;;21.10;99.90;;;;;;5010388;28;20087;-66
2021/08/19 12:55:34;;;;;;;3.25;1.90;;;21.10;99.90;;;;;;5008437;28;20096;-73
2021/08/19 12:58:01;;;;;;;3.28;2.33;;;21.00;99.90;;;;;;5010375;28;20042;-65
2021/08/19 13:00:32;;;;;;;1.23;0.88;;;20.90;99.90;;;;;;5012527;28;20041;-71